Latest Weather Observations for Hindmarsh Island

IDS60901

Issued at 10:01 am CST Thursday 20 September 2018 (issued every 10 minutes, with the page automatically refreshed every 10 minutes)

About weather observations | Map of Adelaide area stations | Latest observations for Adelaide area | Other Formats
Station Details ID: 023894 Name: HINDMARSH ISLAND AWS Lat: -35.52 Lon: 138.82 Height: 11.0 m
Data from the previous 72 hours. | See also: Recent months at Hindmarsh Island
Date/Time
CST
Temp
°C
App
Temp
°C
Dew
Point
°C
Rel
Hum
%
Delta-T
°C
Wind Press
QNH
hPa
Press
MSL
hPa
Rain since
9am
mm
Dir  Spd
km/h
Gust
km/h
Spd
kts
Gust
kts
20/10:00am 14.1 9.0 7.6 65 3.2 SW 24 32 13 17 1024.2 1024.2 0.0
20/09:30am 14.2 9.3 8.4 68 2.9 SW 24 30 13 16 1024.0 1024.0 0.0
20/09:00am 13.6 9.3 8.0 69 2.8 W 20 26 11 14 1023.6 1023.6 2.6
20/08:30am 13.1 9.0 7.8 70 2.6 W 19 26 10 14 1023.1 1023.1 2.6
20/08:00am 12.2 8.9 8.1 76 2.0 WNW 15 19 8 10 1022.7 1022.7 2.6
20/07:30am 11.3 7.2 8.0 80 1.6 WNW 19 24 10 13 1022.3 1022.3 2.6
20/07:00am 10.2 6.7 7.4 83 1.3 WNW 15 19 8 10 1022.2 1022.2 2.6
20/06:30am 9.5 6.0 7.1 85 1.1 WNW 15 19 8 10 1021.7 1021.7 2.6
20/06:00am 9.1 6.2 6.7 85 1.1 WNW 11 13 6 7 1021.3 1021.3 2.6
20/05:30am 9.5 6.4 7.1 85 1.1 WNW 13 17 7 9 1020.9 1020.9 2.4
20/05:00am 9.1 6.2 6.7 85 1.1 NW 11 13 6 7 1020.7 1020.7 2.4
20/04:30am 8.8 5.5 6.6 86 1.0 NW 13 17 7 9 1020.5 1020.5 2.4
20/04:00am 8.7 5.4 6.3 85 1.1 NW 13 15 7 8 1020.3 1020.3 2.4
20/03:30am 8.8 5.9 6.4 85 1.1 NW 11 13 6 7 1020.1 1020.1 2.4
20/03:00am 9.1 6.2 6.7 85 1.1 WNW 11 13 6 7 1020.1 1020.1 2.4
20/02:30am 9.5 6.7 6.9 84 1.2 WNW 11 13 6 7 1020.2 1020.2 2.4
20/02:00am 10.1 6.6 7.3 83 1.3 WNW 15 19 8 10 1020.2 1020.2 2.4
20/01:30am 9.8 6.7 7.4 85 1.1 W 13 20 7 11 1020.6 1020.6 2.4
20/01:00am 8.8 6.3 6.6 86 1.0 WNW 9 11 5 6 1020.7 1020.7 2.4
20/12:30am 8.5 5.5 6.1 85 1.1 WNW 11 13 6 7 1020.7 1020.7 2.4
20/12:00am 8.0 5.3 5.6 85 1.1 NW 9 11 5 6 1020.7 1020.7 2.4
 
Date/Time
CST
Temp
°C
App
Temp
°C
Dew
Point
°C
Rel
Hum
%
Delta-T
°C
Wind Press
QNH
hPa
Press
MSL
hPa
Rain since
9am
mm
Dir  Spd
km/h
Gust
km/h
Spd
kts
Gust
kts
19/11:30pm 8.2 5.5 5.8 85 1.1 NW 9 11 5 6 1020.5 1020.5 2.4
19/11:00pm 8.3 5.6 5.8 84 1.1 NNW 9 11 5 6 1020.5 1020.5 2.4
19/10:30pm 8.3 5.6 5.6 83 1.2 NNW 9 11 5 6 1020.4 1020.4 2.4
19/10:00pm 8.8 6.5 5.9 82 1.3 NW 7 9 4 5 1020.3 1020.3 2.4
19/09:30pm 9.1 6.4 5.8 80 1.5 N 9 9 5 5 1020.2 1020.2 2.4
19/09:00pm 9.5 7.3 6.0 79 1.6 NNW 7 9 4 5 1020.0 1020.0 2.4
19/08:30pm 9.8 8.2 6.5 80 1.5 NW 4 11 2 6 1020.0 1020.0 2.4
19/08:00pm 9.6 8.1 6.7 82 1.4 S 4 7 2 4 1020.0 1020.0 2.2
19/07:30pm 9.7 6.9 7.0 83 1.3 NW 11 13 6 7 1019.6 1019.6 2.2
19/07:00pm 10.0 7.6 7.1 82 1.4 NW 9 13 5 7 1019.3 1019.3 2.2
19/06:30pm 10.2 7.1 7.3 82 1.4 WNW 13 19 7 10 1019.3 1019.3 2.2
19/06:00pm 10.2 5.7 7.1 81 1.5 WNW 20 30 11 16 1019.3 1019.3 1.4
19/05:30pm 10.6 6.7 7.3 80 1.6 WNW 17 24 9 13 1019.0 1019.0 1.0
19/05:00pm 10.5 5.7 7.4 81 1.5 WNW 22 33 12 18 1018.8 1018.8 1.0
19/04:30pm 10.9 7.4 7.4 79 1.7 W 15 22 8 12 1018.6 1018.6 0.6
19/04:00pm 11.1 7.8 8.0 81 1.5 WSW 15 22 8 12 1018.4 1018.4 0.4
19/03:30pm 12.0 8.3 6.1 67 2.8 WSW 15 20 8 11 1018.2 1018.2 0.2
19/03:00pm 11.8 6.4 6.5 70 2.5 W 24 35 13 19 1018.0 1018.0 0.2
19/02:30pm 14.0 8.7 5.1 55 4.1 W 22 30 12 16 1017.9 1017.9 0.2
19/02:00pm 13.7 9.7 8.3 70 2.7 SW 19 26 10 14 1017.9 1017.9 0.2
19/01:30pm 12.7 7.3 6.3 65 3.0 SSW 24 32 13 17 1017.9 1017.9 0.0
19/01:00pm 14.7 7.5 5.0 52 4.5 SW 32 41 17 22 1018.0 1018.0 0.0
19/12:30pm 13.4 6.4 4.3 54 4.1 SW 30 39 16 21 1018.0 1018.0 0.0
19/12:00pm 13.0 8.6 7.5 69 2.7 SSW 20 24 11 13 1018.2 1018.2 0.0
19/11:30am 13.0 6.9 6.8 66 3.0 SSW 28 33 15 18 1018.2 1018.2 0.0
19/11:00am 13.5 8.3 5.4 58 3.8 WSW 22 28 12 15 1018.3 1018.3 0.0
19/10:30am 13.4 7.1 5.8 60 3.6 SW 28 35 15 19 1018.3 1018.3 0.0
19/10:00am 13.8 6.7 5.4 57 3.9 SW 32 41 17 22 1018.2 1018.2 0.0
19/09:30am 13.5 7.0 4.9 56 4.0 SW 28 37 15 20 1018.2 1018.2 0.0
19/09:00am 12.5 7.7 5.4 62 3.3 W 20 26 11 14 1018.1 1018.1 0.2
19/08:30am 10.7 6.1 5.7 71 2.3 W 19 28 10 15 1017.8 1017.8 0.2
19/08:00am 11.8 6.5 5.0 63 3.1 W 22 32 12 17 1017.4 1017.4 0.0
19/07:30am 10.5 5.5 4.4 66 2.7 W 20 30 11 16 1017.0 1017.0 0.0
19/07:00am 9.6 4.5 4.2 69 2.4 W 20 30 11 16 1016.6 1016.6 0.0
19/06:30am 9.2 4.1 4.0 70 2.3 W 20 28 11 15 1016.0 1016.0 0.0
19/06:00am 9.0 3.8 3.6 69 2.3 WNW 20 30 11 16 1015.9 1015.9 0.0
19/05:30am 9.1 3.9 3.7 69 2.3 WNW 20 28 11 15 1015.6 1015.6 0.0
19/05:00am 9.2 3.6 3.6 68 2.4 W 22 30 12 16 1015.3 1015.3 0.0
19/04:30am 9.2 3.2 3.6 68 2.4 W 24 32 13 17 1015.1 1015.1 0.0
19/04:00am 9.0 3.4 3.6 69 2.3 W 22 30 12 16 1014.9 1014.9 0.0
19/03:30am 8.9 3.9 3.7 70 2.3 W 19 26 10 14 1014.8 1014.8 0.0
19/03:00am 9.1 4.0 4.1 71 2.2 WNW 20 30 11 16 1014.8 1014.8 0.0
19/02:30am 9.0 2.7 3.8 70 2.3 W 26 33 14 18 1014.8 1014.8 0.0
19/02:00am 8.8 2.5 3.6 70 2.2 W 26 35 14 19 1015.0 1015.0 0.0
19/01:30am 8.9 3.3 3.7 70 2.3 WNW 22 30 12 16 1015.3 1015.3 0.0
19/01:00am 8.8 3.8 3.4 69 2.3 WNW 19 24 10 13 1015.6 1015.6 0.0
19/12:30am 9.0 3.8 3.6 69 2.3 WNW 20 26 11 14 1015.5 1015.5 0.0
19/12:00am 9.2 4.0 3.6 68 2.4 WNW 20 26 11 14 1015.4 1015.4 0.0
 
Date/Time
CST
Temp
°C
App
Temp
°C
Dew
Point
°C
Rel
Hum
%
Delta-T
°C
Wind Press
QNH
hPa
Press
MSL
hPa
Rain since
9am
mm
Dir  Spd
km/h
Gust
km/h
Spd
kts
Gust
kts
18/11:30pm 9.7 3.4 3.7 66 2.6 W 26 35 14 19 1015.3 1015.3 0.0
18/11:00pm 9.8 3.1 3.5 65 2.7 W 28 37 15 20 1015.1 1015.1 0.0
18/10:30pm 9.7 3.4 3.7 66 2.6 W 26 35 14 19 1015.1 1015.1 0.0
18/10:00pm 9.8 3.1 3.5 65 2.7 W 28 46 15 25 1015.0 1015.0 0.0
18/09:55pm 9.8 3.1 3.8 66 2.6 W 28 46 15 25 1015.0 1015.0 0.0
18/09:30pm 9.7 3.0 3.9 67 2.5 W 28 35 15 19 1014.9 1014.9 0.0
18/09:00pm 9.6 3.3 3.8 67 2.5 WNW 26 37 14 20 1014.5 1014.5 0.0
18/08:30pm 9.7 4.3 4.7 71 2.2 W 22 32 12 17 1014.4 1014.4 0.0
18/08:00pm 10.9 5.1 4.6 65 2.8 W 24 33 13 18 1014.3 1014.3 0.0
18/07:30pm 11.0 4.7 4.0 62 3.1 WNW 26 35 14 19 1013.6 1013.6 0.0
18/07:00pm 10.5 4.5 3.5 62 3.1 WNW 24 33 13 18 1013.4 1013.4 0.0
18/06:30pm 11.3 6.4 5.0 65 2.9 W 20 32 11 17 1013.2 1013.2 0.0
18/06:00pm 10.9 3.1 5.0 67 2.7 WSW 35 46 19 25 1013.0 1013.0 0.0
18/05:55pm 10.8 2.9 4.5 65 2.8 WSW 35 46 19 25 1012.9 1012.9 0.0
18/05:33pm 13.0 4.8 2.8 50 4.5 W 35 54 19 29 1012.4 1012.4 0.0
18/05:30pm 13.3 5.5 3.1 50 4.5 W 33 48 18 26 1012.4 1012.4 0.0
18/05:09pm 13.8 6.1 3.3 49 4.7 W 33 52 18 28 1012.3 1012.3 0.0
18/05:00pm 13.9 6.1 3.1 48 4.8 W 33 50 18 27 1011.9 1011.9 0.0
18/04:30pm 14.4 6.8 2.9 46 5.1 W 32 50 17 27 1011.7 1011.7 0.0
18/04:01pm 14.9 6.6 2.4 43 5.6 W 35 54 19 29 1011.6 1011.6 0.0
18/04:00pm 15.0 6.5 2.9 44 5.4 W 37 54 20 29 1011.6 1011.6 0.0
18/03:37pm 14.8 5.1 3.0 45 5.3 W 43 61 23 33 1011.3 1011.3 0.0
18/03:30pm 14.8 5.5 2.7 44 5.4 W 41 57 22 31 1011.3 1011.3 0.0
18/03:00pm 15.2 5.3 1.4 39 6.0 WNW 43 56 23 30 1011.1 1011.1 0.0
18/02:36pm 15.5 7.0 3.3 44 5.6 W 37 56 20 30 1010.9 1010.9 0.0
18/02:30pm 15.5 6.8 3.9 46 5.4 W 39 54 21 29 1011.0 1011.0 0.0
18/02:00pm 14.7 7.7 6.0 56 4.2 W 32 59 17 32 1010.9 1010.9 0.0
18/01:33pm 15.4 8.3 5.3 51 4.8 WNW 32 54 17 29 1011.0 1011.0 0.0
18/01:30pm 15.8 9.3 6.3 53 4.6 WNW 30 46 16 25 1011.1 1011.1 0.0
18/01:00pm 14.8 7.4 6.6 58 4.0 WNW 35 54 19 29 1011.3 1011.3 0.0
18/12:34pm 14.0 7.1 6.6 61 3.6 WNW 32 50 17 27 1011.6 1011.6 0.0
18/12:30pm 13.6 6.4 6.0 60 3.6 WNW 33 50 18 27 1011.6 1011.6 0.0
18/12:05pm 12.4 4.4 7.3 71 2.5 WNW 39 57 21 31 1012.1 1012.1 0.0
18/12:00pm 12.5 4.1 7.4 71 2.5 WNW 41 57 22 31 1012.0 1012.0 0.0
18/11:30am 13.5 6.2 7.3 66 3.0 WNW 35 50 19 27 1012.0 1012.0 0.0
18/11:25am 13.8 7.0 7.1 64 3.3 WNW 32 50 17 27 1012.0 1012.0 0.0
18/11:00am 15.0 7.8 5.0 51 4.7 WNW 32 41 17 22 1011.7 1011.7 0.0
18/10:30am 15.6 8.1 4.3 47 5.3 WNW 33 46 18 25 1011.7 1011.7 0.0
18/10:00am 15.3 8.0 4.4 48 5.1 NW 32 46 17 25 1011.7 1011.7 0.0
18/09:54am 15.3 8.7 4.1 47 5.2 NW 28 46 15 25 1011.7 1011.7 0.0
18/09:30am 15.0 8.3 3.8 47 5.1 WNW 28 39 15 21 1011.6 1011.6 0.0
18/09:00am 14.6 8.9 2.8 45 5.3 W 22 30 12 16 1011.9 1011.9 0.0
18/08:30am 13.7 8.7 4.8 55 4.1 W 20 28 11 15 1012.2 1012.2 0.0
18/08:00am 12.9 7.3 5.3 60 3.5 W 24 32 13 17 1011.9 1011.9 0.0
18/07:30am 12.3 7.0 6.6 68 2.7 W 24 33 13 18 1011.7 1011.7 0.0
18/07:00am 12.9 8.1 7.4 69 2.7 WSW 22 33 12 18 1011.1 1011.1 0.0
18/06:30am 12.7 7.4 7.0 68 2.7 W 24 33 13 18 1010.8 1010.8 0.0
18/06:00am 13.0 9.9 8.7 75 2.2 W 15 22 8 12 1010.6 1010.6 0.0
18/05:30am 12.7 7.9 8.8 77 2.0 WSW 24 37 13 20 1010.3 1010.3 0.0
18/05:00am 13.2 8.9 9.3 77 2.0 WSW 22 30 12 16 1009.8 1009.8 0.0
18/04:30am 14.1 10.5 8.5 69 2.8 W 17 28 9 15 1009.4 1009.4 0.0
18/04:00am 13.3 9.8 5.5 59 3.7 W 13 15 7 8 1009.0 1009.0 0.0
18/03:30am 14.2 9.1 4.2 51 4.6 WNW 20 30 11 16 1008.7 1008.7 0.0
18/03:00am 14.9 8.7 0.0 36 6.3 WNW 22 35 12 19 1008.5 1008.5 0.0
18/02:30am 16.1 7.5 -2.9 27 7.6 NW 33 46 18 25 1008.1 1008.1 0.0
18/02:16am 16.8 7.9 -5.0 22 8.4 NW 33 50 18 27 1008.1 1008.1 0.0
18/02:00am 15.8 10.6 -5.8 22 8.1 NNW 13 28 7 15 1008.5 1008.5 0.0
18/01:30am 15.1 9.0 -3.7 27 7.3 NNE 19 26 10 14 1008.0 1008.0 0.0
18/01:00am 14.5 8.3 -3.3 29 7.0 NNE 20 26 11 14 1008.1 1008.1 0.0
18/12:30am 14.1 8.0 -3.6 29 6.9 NNE 19 24 10 13 1008.6 1008.6 0.0
18/12:00am 13.6 7.7 -2.3 33 6.3 NNE 19 20 10 11 1008.8 1008.8 0.0
 
Date/Time
CST
Temp
°C
App
Temp
°C
Dew
Point
°C
Rel
Hum
%
Delta-T
°C
Wind Press
QNH
hPa
Press
MSL
hPa
Rain since
9am
mm
Dir  Spd
km/h
Gust
km/h
Spd
kts
Gust
kts
17/11:30pm 13.8 8.3 -1.8 34 6.3 N 17 20 9 11 1009.1 1009.1 0.0
17/11:00pm 13.8 8.1 -0.6 37 5.9 N 19 24 10 13 1009.7 1009.7 0.0
17/10:30pm 12.7 7.9 0.1 42 5.2 N 15 19 8 10 1010.1 1010.1 0.0
17/10:00pm 13.7 8.3 -1.1 36 6.0 N 17 22 9 12 1010.4 1010.4 0.0
17/09:30pm 14.2 8.8 -1.4 34 6.3 N 17 20 9 11 1010.8 1010.8 0.0
17/09:00pm 14.6 9.6 -1.5 33 6.6 NNE 15 20 8 11 1010.9 1010.9 0.0
17/08:30pm 14.9 9.6 -0.8 34 6.5 NNE 17 22 9 12 1011.1 1011.1 0.0
17/08:00pm 14.4 9.2 0.3 38 6.0 NNE 17 20 9 11 1011.3 1011.3 0.0
17/07:30pm 14.3 9.6 0.6 39 5.8 NNE 15 19 8 10 1011.2 1011.2 0.0
17/07:00pm 15.0 10.5 -0.3 35 6.4 N 13 17 7 9 1011.1 1011.1 0.0
17/06:30pm 16.1 11.6 -0.6 32 7.0 N 13 24 7 13 1011.3 1011.3 0.0
17/06:00pm 17.3 11.9 -1.4 28 7.8 N 17 20 9 11 1011.3 1011.3 0.0
17/05:30pm 18.2 12.8 -1.1 27 8.2 N 17 26 9 14 1011.3 1011.3 0.0
17/05:00pm 19.0 13.0 -1.4 25 8.7 NNW 20 28 11 15 1011.6 1011.6 0.0
17/04:30pm 19.2 11.6 -1.8 24 8.9 NNW 28 41 15 22 1012.0 1012.0 0.0
17/04:00pm 19.4 12.3 -1.1 25 8.8 NW 26 35 14 19 1012.1 1012.1 0.0
17/03:30pm 19.7 11.8 -1.4 24 9.0 NNW 30 43 16 23 1012.2 1012.2 0.0
17/03:00pm 19.7 12.7 -0.3 26 8.8 NW 26 44 14 24 1012.6 1012.6 0.0
17/02:30pm 20.0 12.4 0.5 27 8.7 NNW 30 46 16 25 1013.2 1013.2 0.0
17/02:00pm 19.5 10.9 0.0 27 8.6 NNW 35 50 19 27 1013.2 1013.2 0.0
17/01:30pm 19.3 11.2 0.8 29 8.3 NNW 33 48 18 26 1013.9 1013.9 0.0
17/01:01pm 18.8 9.9 -1.6 25 8.6 NNW 35 54 19 29 1014.5 1014.5 0.0
17/01:00pm 18.7 10.3 -1.2 26 8.5 NNW 33 50 18 27 1014.6 1014.6 0.0
17/12:30pm 18.9 10.8 -0.5 27 8.4 NNW 32 52 17 28 1015.3 1015.3 0.0
17/12:27pm 18.7 10.8 -1.7 25 8.6 NNW 30 52 16 28 1015.4 1015.4 0.0
17/12:00pm 18.4 10.2 -0.9 27 8.2 NNW 32 44 17 24 1016.2 1016.2 0.0
17/11:41am 19.0 11.0 0.6 29 8.2 NNW 32 50 17 27 1016.6 1016.6 0.0
17/11:30am 18.2 9.5 -0.6 28 8.1 NNW 35 46 19 25 1016.6 1016.6 0.0
17/11:05am 17.9 10.7 0.6 31 7.6 NNW 28 46 15 25 1017.1 1017.1 0.0
17/11:00am 18.3 10.8 0.9 31 7.7 NNW 30 44 16 24 1017.2 1017.2 0.0
17/10:30am 17.5 9.8 0.2 31 7.5 NNW 30 48 16 26 1017.6 1017.6 0.0
17/10:29am 17.4 10.2 0.6 32 7.3 NNW 28 48 15 26 1017.6 1017.6 0.0

Latest Capital City Observations: Canberra | Sydney | Melbourne | Brisbane | Adelaide | Perth | Hobart | Darwin

Other Formats:

Comma delimited format used in spreadsheet applications
http://www.bom.gov.au/fwo/IDS60901/IDS60901.94677.axf

JavaScript Object Notation format (JSON) in row-major order
http://www.bom.gov.au/fwo/IDS60901/IDS60901.94677.json